createdAt,value
2022-08-02T00:00:55.405Z,88.80
2022-08-02T00:03:24.485Z,88.88
2022-08-02T00:05:53.657Z,88.40
2022-08-02T00:08:21.032Z,87.73
2022-08-02T00:10:47.592Z,86.78
2022-08-02T00:13:14.128Z,87.06
2022-08-02T00:15:40.482Z,87.67
2022-08-02T00:18:07.378Z,88.35
2022-08-02T00:20:33.806Z,87.73
2022-08-02T00:23:00.154Z,87.70
2022-08-02T00:25:27.147Z,88.58
2022-08-02T00:27:53.494Z,88.35
2022-08-02T00:30:19.908Z,88.47
2022-08-02T00:32:46.581Z,88.60
2022-08-02T00:35:13.018Z,88.51
2022-08-02T00:37:41.123Z,88.69
2022-08-02T00:40:11.922Z,87.83
2022-08-02T00:42:39.471Z,87.99
2022-08-02T00:45:07.148Z,88.01
2022-08-02T00:47:33.865Z,87.70
2022-08-02T00:50:00.282Z,87.73
2022-08-02T00:52:26.680Z,88.14
2022-08-02T00:54:53.454Z,87.77
2022-08-02T00:57:19.907Z,88.62
2022-08-02T00:59:46.287Z,87.72
2022-08-02T01:02:13.296Z,88.10
2022-08-02T01:04:39.836Z,88.35
2022-08-02T01:07:12.903Z,88.93
2022-08-02T01:09:44.794Z,89.35
2022-08-02T01:12:12.396Z,89.51
2022-08-02T01:14:41.803Z,88.75
2022-08-02T01:17:24.247Z,88.55
2022-08-02T01:20:25.721Z,89.10
2022-08-02T01:23:04.129Z,90.58
2022-08-02T01:25:48.970Z,91.46
2022-08-02T01:28:18.320Z,91.14
2022-08-02T01:30:50.068Z,90.59
2022-08-02T01:33:20.878Z,90.04
2022-08-02T01:35:54.732Z,89.41
2022-08-02T01:38:32.579Z,89.16
2022-08-02T01:41:02.159Z,88.62
2022-08-02T01:43:31.024Z,88.32
2022-08-02T01:46:01.054Z,88.43
2022-08-02T01:48:30.051Z,88.84
2022-08-02T01:50:58.856Z,88.98
2022-08-02T01:53:27.065Z,89.21
2022-08-02T01:55:56.985Z,89.07
2022-08-02T01:58:28.264Z,88.91
2022-08-02T02:00:58.134Z,89.57
2022-08-02T02:03:26.939Z,89.41
2022-08-02T02:05:56.481Z,88.88
2022-08-02T02:08:32.911Z,89.84
2022-08-02T02:12:12.391Z,90.00
2022-08-02T02:13:50.661Z,89.34
2022-08-02T02:16:19.419Z,89.61
2022-08-02T02:18:48.876Z,89.04
2022-08-02T02:21:16.731Z,88.60
2022-08-02T02:23:43.562Z,88.62
2022-08-02T02:26:13.547Z,89.22
2022-08-02T02:28:41.334Z,89.16
2022-08-02T02:31:12.618Z,88.34
2022-08-02T02:33:58.866Z,88.28
2022-08-02T02:36:26.159Z,88.46
2022-08-02T02:38:58.582Z,88.76
2022-08-02T02:41:27.571Z,89.31
2022-08-02T02:43:58.371Z,89.29
2022-08-02T02:46:26.935Z,89.35
2022-08-02T02:48:54.971Z,88.68
2022-08-02T02:51:22.328Z,88.78
2022-08-02T02:54:33.348Z,89.05
2022-08-02T02:56:39.474Z,88.89
2022-08-02T02:59:07.922Z,88.44
2022-08-02T03:01:56.242Z,88.39
2022-08-02T03:04:24.006Z,88.73
2022-08-02T03:06:50.983Z,88.90
2022-08-02T03:09:17.856Z,88.71
2022-08-02T03:11:44.376Z,89.29
2022-08-02T03:14:12.620Z,89.62
2022-08-02T03:16:47.437Z,89.52
2022-08-02T03:19:14.961Z,89.24
2022-08-02T03:21:42.894Z,89.17
2022-08-02T03:24:10.166Z,90.76
2022-08-02T03:26:36.707Z,90.62
2022-08-02T03:29:10.341Z,90.48
2022-08-02T03:31:40.671Z,90.54
2022-08-02T03:34:07.855Z,91.36
2022-08-02T03:36:35.618Z,91.50
2022-08-02T03:39:03.949Z,91.27
2022-08-02T03:41:31.196Z,91.44
2022-08-02T03:43:58.456Z,91.25
2022-08-02T03:46:25.932Z,91.31
2022-08-02T03:48:55.035Z,91.21
2022-08-02T03:51:22.314Z,91.06
2022-08-02T03:53:49.587Z,90.78
2022-08-02T03:56:17.357Z,91.13
2022-08-02T03:58:48.860Z,91.26
2022-08-02T04:01:15.767Z,90.84
2022-08-02T04:03:42.683Z,90.39
2022-08-02T04:06:09.079Z,89.98
2022-08-02T04:08:38.512Z,90.28
2022-08-02T04:11:25.672Z,90.48
2022-08-02T04:13:54.681Z,90.87
2022-08-02T04:16:34.407Z,90.39
2022-08-02T04:19:04.008Z,90.32
2022-08-02T04:21:48.793Z,90.36
2022-08-02T04:24:24.388Z,89.88
2022-08-02T04:26:55.097Z,90.03
2022-08-02T04:29:26.072Z,90.18
2022-08-02T04:31:53.817Z,89.90
2022-08-02T04:34:21.033Z,89.34
2022-08-02T04:36:48.456Z,90.22
2022-08-02T04:39:15.202Z,90.53
2022-08-02T04:41:44.524Z,90.56
2022-08-02T04:44:12.139Z,91.19
2022-08-02T04:46:39.161Z,90.93
2022-08-02T04:49:06.777Z,90.63
2022-08-02T04:51:41.163Z,91.01
2022-08-02T04:54:10.394Z,91.15
2022-08-02T04:56:38.291Z,90.87
2022-08-02T04:59:05.421Z,90.80
2022-08-02T05:01:32.756Z,90.55
2022-08-02T05:03:59.216Z,89.10
2022-08-02T05:06:25.607Z,90.56
2022-08-02T05:08:53.608Z,90.61
2022-08-02T05:11:21.935Z,90.06
2022-08-02T05:13:58.557Z,88.82
2022-08-02T05:16:31.195Z,88.06
2022-08-02T05:19:01.992Z,87.62
2022-08-02T05:21:29.151Z,87.45
2022-08-02T05:23:55.513Z,87.31
2022-08-02T05:26:21.883Z,87.21
2022-08-02T05:28:48.610Z,88.33
2022-08-02T05:31:15.027Z,86.45
2022-08-02T05:33:41.635Z,85.80
2022-08-02T05:36:09.843Z,86.28
2022-08-02T05:38:37.421Z,83.89
2022-08-02T05:41:07.328Z,86.43
2022-08-02T05:43:34.143Z,87.91
2022-08-02T05:46:00.556Z,88.13
2022-08-02T05:48:31.495Z,86.88
2022-08-02T05:51:12.568Z,84.95
2022-08-02T05:53:50.935Z,86.21
2022-08-02T05:56:25.355Z,86.07
2022-08-02T05:59:23.855Z,85.18
2022-08-02T06:01:56.839Z,84.60
2022-08-02T06:04:45.480Z,85.69
2022-08-02T06:07:12.879Z,86.11
2022-08-02T06:09:40.372Z,85.35
2022-08-02T06:12:12.020Z,83.17
2022-08-02T06:14:41.727Z,81.25
2022-08-02T06:17:09.375Z,78.29
2022-08-02T06:19:51.154Z,81.71
2022-08-02T06:22:33.962Z,81.94
2022-08-02T06:25:04.739Z,81.65
2022-08-02T06:27:32.875Z,81.01
2022-08-02T06:29:59.911Z,82.13
2022-08-02T06:32:27.561Z,78.87
2022-08-02T06:34:54.987Z,78.61
2022-08-02T06:37:46.301Z,79.11
2022-08-02T06:40:39.020Z,72.57
2022-08-02T06:43:27.777Z,66.49
2022-08-02T06:45:54.210Z,64.61
2022-08-02T06:48:41.942Z,65.17
2022-08-02T06:51:08.516Z,71.07
2022-08-02T06:53:34.896Z,67.13
2022-08-02T06:56:01.636Z,64.57
2022-08-02T06:58:28.536Z,64.03
2022-08-02T07:00:55.047Z,63.38
2022-08-02T07:03:21.650Z,61.82
2022-08-02T07:05:49.259Z,58.17
2022-08-02T07:08:15.857Z,57.42
2022-08-02T07:10:42.409Z,60.02
2022-08-02T07:13:09.938Z,59.89
2022-08-02T07:15:38.156Z,60.27
2022-08-02T07:18:05.907Z,62.68
2022-08-02T07:20:33.163Z,61.80
2022-08-02T07:22:59.538Z,59.73
2022-08-02T07:25:26.409Z,58.00
2022-08-02T07:27:56.510Z,53.73
2022-08-02T07:30:23.559Z,57.07
2022-08-02T07:32:49.976Z,56.60
2022-08-02T07:35:16.383Z,58.53
2022-08-02T07:37:54.743Z,52.39
2022-08-02T07:40:25.078Z,48.10
2022-08-02T07:42:57.847Z,48.22
2022-08-02T07:45:25.109Z,45.30
2022-08-02T07:47:52.595Z,49.00
2022-08-02T07:50:20.683Z,50.37
2022-08-02T07:52:47.492Z,52.46
2022-08-02T07:55:15.888Z,53.73
2022-08-02T07:57:46.186Z,52.39
2022-08-02T08:00:14.185Z,48.44
2022-08-02T08:02:40.822Z,46.98
2022-08-02T08:05:08.157Z,51.19
2022-08-02T08:07:35.332Z,47.18
2022-08-02T08:10:02.251Z,48.33
2022-08-02T08:12:28.932Z,49.94
2022-08-02T08:14:55.327Z,47.87
2022-08-02T08:17:22.272Z,48.01
2022-08-02T08:19:51.117Z,49.93
2022-08-02T08:22:19.392Z,47.43
2022-08-02T08:24:45.999Z,45.82
2022-08-02T08:27:14.589Z,47.72
2022-08-02T08:29:42.532Z,51.92
2022-08-02T08:32:14.416Z,47.05
2022-08-02T08:34:42.576Z,41.74
2022-08-02T08:37:09.358Z,46.72
2022-08-02T08:39:57.046Z,47.62
2022-08-02T08:42:28.321Z,48.83
2022-08-02T08:44:59.234Z,53.91
2022-08-02T08:47:39.238Z,60.34
2022-08-02T08:50:12.761Z,61.45
2022-08-02T08:52:49.652Z,62.73
2022-08-02T08:55:16.791Z,63.02
2022-08-02T08:57:44.327Z,59.55
2022-08-02T09:00:16.371Z,56.00
2022-08-02T09:02:43.796Z,50.41
2022-08-02T09:05:13.187Z,61.94
2022-08-02T09:07:42.577Z,61.27
2022-08-02T09:10:41.642Z,56.02
2022-08-02T09:13:37.680Z,56.75
2022-08-02T09:15:58.409Z,56.20
2022-08-02T09:18:31.715Z,51.46
2022-08-02T09:21:01.674Z,52.16
2022-08-02T09:23:44.371Z,51.24
2022-08-02T09:26:13.433Z,50.09
2022-08-02T09:28:42.063Z,44.36
2022-08-02T09:31:09.383Z,45.31
2022-08-02T09:33:37.775Z,49.78
2022-08-02T09:36:14.977Z,48.37
2022-08-02T09:38:57.204Z,41.84
2022-08-02T09:41:26.489Z,41.39
2022-08-02T09:44:04.813Z,42.64
2022-08-02T09:46:37.325Z,45.86
2022-08-02T09:49:09.972Z,45.49
2022-08-02T09:51:41.080Z,47.34
2022-08-02T09:54:11.662Z,47.32
2022-08-02T09:56:50.442Z,43.23
2022-08-02T09:59:18.799Z,41.09
2022-08-02T10:01:51.034Z,40.38
2022-08-02T10:04:27.700Z,44.93
2022-08-02T10:06:54.243Z,43.57
2022-08-02T10:09:21.537Z,44.40
2022-08-02T10:11:48.611Z,44.91
2022-08-02T10:14:15.447Z,40.68
2022-08-02T10:16:43.660Z,35.26
2022-08-02T10:19:11.266Z,40.05
2022-08-02T10:21:55.909Z,35.93
2022-08-02T10:24:27.125Z,36.02
2022-08-02T10:26:54.688Z,35.59
2022-08-02T10:29:27.633Z,35.36
2022-08-02T10:32:21.836Z,39.84
2022-08-02T10:34:58.674Z,42.47
2022-08-02T10:37:47.940Z,44.42
2022-08-02T10:40:23.667Z,44.06
2022-08-02T10:42:54.693Z,42.68
2022-08-02T10:45:23.439Z,43.64
2022-08-02T10:48:11.548Z,44.05
2022-08-02T10:50:47.458Z,45.03
2022-08-02T10:53:31.274Z,41.27
2022-08-02T10:56:02.005Z,38.05
2022-08-02T10:58:34.190Z,40.76
2022-08-02T11:01:38.621Z,35.76
2022-08-02T11:04:10.447Z,35.37
2022-08-02T11:07:17.514Z,34.11
2022-08-02T11:09:50.990Z,31.84
2022-08-02T11:12:21.687Z,30.12
2022-08-02T11:15:07.671Z,29.27
2022-08-02T11:17:54.739Z,31.39
2022-08-02T11:20:23.548Z,33.05
2022-08-02T11:22:53.289Z,36.27
2022-08-02T11:25:22.835Z,37.26
2022-08-02T11:27:54.737Z,35.95
2022-08-02T11:30:26.417Z,37.68
2022-08-02T11:32:58.853Z,36.02
2022-08-02T11:35:39.872Z,32.79
2022-08-02T11:38:20.131Z,33.01
2022-08-02T11:40:47.968Z,31.53
2022-08-02T11:43:18.830Z,32.99
2022-08-02T11:45:45.871Z,33.48
2022-08-02T11:48:12.999Z,32.67
2022-08-02T11:50:40.113Z,30.88
2022-08-02T11:53:15.123Z,32.49
2022-08-02T11:55:41.727Z,34.54
2022-08-02T11:58:11.800Z,35.51
2022-08-02T12:00:39.007Z,38.37
2022-08-02T12:03:06.414Z,32.36
2022-08-02T12:06:05.183Z,35.15
2022-08-02T12:08:25.415Z,34.97
2022-08-02T12:10:52.319Z,33.85
2022-08-02T12:13:19.191Z,30.55
2022-08-02T12:15:47.491Z,32.12
2022-08-02T12:18:41.289Z,31.75
2022-08-02T12:21:25.187Z,31.31
2022-08-02T12:23:57.114Z,29.84
2022-08-02T12:26:28.096Z,28.59
2022-08-02T12:28:59.463Z,28.85
2022-08-02T12:31:55.956Z,27.68
2022-08-02T12:34:31.852Z,33.84
2022-08-02T12:37:02.991Z,31.16
2022-08-02T12:39:44.820Z,33.85
2022-08-02T12:42:15.864Z,34.68
2022-08-02T12:44:55.295Z,29.63
2022-08-02T12:47:22.353Z,31.26
2022-08-02T12:50:11.333Z,31.51
2022-08-02T12:52:38.152Z,35.20
2022-08-02T12:55:24.410Z,39.44
2022-08-02T12:58:05.630Z,38.44
2022-08-02T13:00:35.568Z,40.51
2022-08-02T13:03:02.600Z,36.53
2022-08-02T13:05:55.889Z,35.87
2022-08-02T13:08:17.980Z,30.94
2022-08-02T13:10:45.370Z,30.03
2022-08-02T13:13:12.511Z,29.94
2022-08-02T13:15:50.117Z,31.48
2022-08-02T13:18:18.751Z,33.38
2022-08-02T13:20:45.587Z,35.17
2022-08-02T13:23:14.199Z,35.26
2022-08-02T13:25:48.393Z,34.27
2022-08-02T13:28:19.830Z,37.03
2022-08-02T13:30:46.972Z,37.75
2022-08-02T13:33:14.462Z,36.92
2022-08-02T13:35:42.520Z,38.76
2022-08-02T13:38:08.966Z,39.09
2022-08-02T13:41:03.877Z,36.40
2022-08-02T13:43:53.531Z,35.37
2022-08-02T13:46:17.668Z,36.11
2022-08-02T13:48:55.999Z,37.69
2022-08-02T13:51:23.221Z,37.56
2022-08-02T13:53:49.583Z,39.56
2022-08-02T13:56:16.020Z,39.30
2022-08-02T13:58:43.067Z,38.48
2022-08-02T14:01:09.525Z,36.89
2022-08-02T14:04:07.601Z,37.25
2022-08-02T14:06:22.810Z,35.83
2022-08-02T14:08:49.614Z,38.49
2022-08-02T14:11:16.158Z,38.02
2022-08-02T14:13:42.633Z,39.67
2022-08-02T14:16:09.268Z,41.16
2022-08-02T14:18:36.011Z,41.81
2022-08-02T14:21:02.859Z,43.66
2022-08-02T14:23:49.578Z,42.08
2022-08-02T14:26:27.526Z,44.41
2022-08-02T14:28:55.079Z,42.39
2022-08-02T14:31:21.769Z,43.70
2022-08-02T14:33:48.191Z,41.62
2022-08-02T14:36:14.975Z,38.55
2022-08-02T14:38:53.904Z,37.84
2022-08-02T14:41:20.474Z,39.61
2022-08-02T14:44:05.055Z,41.57
2022-08-02T14:46:32.328Z,42.57
2022-08-02T14:49:02.120Z,42.04
2022-08-02T14:51:32.761Z,39.09
2022-08-02T14:54:03.022Z,36.94
2022-08-02T14:56:30.237Z,36.75
2022-08-02T14:58:57.165Z,36.21
2022-08-02T15:01:26.110Z,36.94
2022-08-02T15:03:53.050Z,38.19
2022-08-02T15:06:19.594Z,36.89
2022-08-02T15:08:46.446Z,39.13
2022-08-02T15:11:13.396Z,37.98
2022-08-02T15:13:41.157Z,36.24
2022-08-02T15:16:09.823Z,36.21
2022-08-02T15:18:36.243Z,36.34
2022-08-02T15:21:13.427Z,37.16
2022-08-02T15:23:49.220Z,37.20
2022-08-02T15:26:15.576Z,36.88
2022-08-02T15:28:41.947Z,37.05
2022-08-02T15:31:08.731Z,37.06
2022-08-02T15:33:35.125Z,37.61
2022-08-02T15:36:02.001Z,38.29
2022-08-02T15:38:28.978Z,39.88
2022-08-02T15:40:55.329Z,40.44
2022-08-02T15:43:21.728Z,40.43
2022-08-02T15:45:48.473Z,38.83
2022-08-02T15:48:14.912Z,39.30
2022-08-02T15:50:41.398Z,39.37
2022-08-02T15:53:08.331Z,38.95
2022-08-02T15:55:51.889Z,38.20
2022-08-02T15:58:22.605Z,37.61
2022-08-02T16:00:49.412Z,37.35
2022-08-02T16:03:15.810Z,38.91
2022-08-02T16:05:42.595Z,37.50
2022-08-02T16:08:09.016Z,37.89
2022-08-02T16:10:35.576Z,37.21
2022-08-02T16:13:21.411Z,37.68
2022-08-02T16:15:47.774Z,37.71
2022-08-02T16:18:14.203Z,36.34
2022-08-02T16:20:40.579Z,37.78
2022-08-02T16:23:07.358Z,37.50
2022-08-02T16:25:35.752Z,38.81
2022-08-02T16:28:07.766Z,37.87
2022-08-02T16:30:35.199Z,38.24
2022-08-02T16:33:02.102Z,36.76
2022-08-02T16:35:28.869Z,37.79
2022-08-02T16:37:55.467Z,36.95
2022-08-02T16:40:22.236Z,39.12
2022-08-02T16:42:50.693Z,37.43
2022-08-02T16:45:21.497Z,37.48
2022-08-02T16:47:55.936Z,37.11
2022-08-02T16:50:27.148Z,37.43
2022-08-02T16:52:56.540Z,37.04
2022-08-02T16:55:24.621Z,36.52
2022-08-02T16:57:51.204Z,36.89
2022-08-02T17:00:23.393Z,37.31
2022-08-02T17:02:49.916Z,37.14
2022-08-02T17:05:16.406Z,37.35
2022-08-02T17:08:16.700Z,38.89
2022-08-02T17:10:31.399Z,37.98
2022-08-02T17:12:58.611Z,39.29
2022-08-02T17:16:07.677Z,39.74
2022-08-02T17:18:26.497Z,40.63
2022-08-02T17:20:53.093Z,40.73
2022-08-02T17:23:19.933Z,41.02
2022-08-02T17:25:52.672Z,41.18
2022-08-02T17:28:19.759Z,41.68
2022-08-02T17:30:46.212Z,42.91
2022-08-02T17:33:13.018Z,42.45
2022-08-02T17:35:52.042Z,41.65
2022-08-02T17:38:26.726Z,41.82
2022-08-02T17:40:55.424Z,43.48
2022-08-02T17:43:21.983Z,44.59
2022-08-02T17:46:01.956Z,46.09
2022-08-02T17:48:49.117Z,48.37
2022-08-02T17:52:15.786Z,49.03
2022-08-02T17:54:02.495Z,50.04
2022-08-02T17:56:29.348Z,51.02
2022-08-02T17:58:55.734Z,53.17
2022-08-02T18:01:23.914Z,55.39
2022-08-02T18:04:09.167Z,56.59
2022-08-02T18:06:36.328Z,56.06
2022-08-02T18:09:04.213Z,55.49
2022-08-02T18:11:52.422Z,55.50
2022-08-02T18:14:20.183Z,56.25
2022-08-02T18:16:48.076Z,57.72
2022-08-02T18:22:03.830Z,57.88
2022-08-02T18:24:32.338Z,58.99
2022-08-02T18:26:58.796Z,59.37
2022-08-02T18:29:30.217Z,60.88
2022-08-02T18:32:06.083Z,60.39
2022-08-02T18:34:38.357Z,61.45
2022-08-02T18:37:05.631Z,62.65
2022-08-02T18:39:33.740Z,61.78
2022-08-02T18:42:05.049Z,62.20
2022-08-02T18:44:31.566Z,63.35
2022-08-02T18:46:58.410Z,64.30
2022-08-02T18:49:30.097Z,64.47
2022-08-02T18:52:15.052Z,64.97
2022-08-02T18:54:41.772Z,64.53
2022-08-02T18:58:02.052Z,64.38
2022-08-02T18:59:57.082Z,64.90
2022-08-02T19:02:24.914Z,64.92
2022-08-02T19:04:54.393Z,66.46
2022-08-02T19:07:22.384Z,66.88
2022-08-02T19:09:49.756Z,66.93
2022-08-02T19:12:27.982Z,67.63
2022-08-02T19:14:55.406Z,68.64
2022-08-02T19:17:53.631Z,68.63
2022-08-02T19:20:10.346Z,68.91
2022-08-02T19:22:46.484Z,69.25
2022-08-02T19:25:17.801Z,69.94
2022-08-02T19:27:47.303Z,70.62
2022-08-02T19:30:14.804Z,70.65
2022-08-02T19:32:58.911Z,71.14
2022-08-02T19:35:29.953Z,71.85
2022-08-02T19:38:06.235Z,71.67
2022-08-02T19:40:33.667Z,71.39
2022-08-02T19:44:23.171Z,71.58
2022-08-02T19:45:50.065Z,72.48
2022-08-02T19:48:24.036Z,73.32
2022-08-02T19:50:59.121Z,73.68
2022-08-02T19:53:48.166Z,73.86
2022-08-02T19:56:20.450Z,74.02
2022-08-02T19:58:49.376Z,74.35
2022-08-02T20:01:17.253Z,74.42
2022-08-02T20:03:51.278Z,75.09
2022-08-02T20:06:19.613Z,75.79
2022-08-02T20:08:59.122Z,75.59
2022-08-02T20:11:27.320Z,75.53
2022-08-02T20:13:53.683Z,76.38
2022-08-02T20:16:28.075Z,76.33
2022-08-02T20:19:10.182Z,76.04
2022-08-02T20:21:42.654Z,76.33
2022-08-02T20:24:10.652Z,76.68
2022-08-02T20:26:47.471Z,77.04
2022-08-02T20:29:14.654Z,77.09
2022-08-02T20:31:41.015Z,77.05
2022-08-02T20:34:07.821Z,77.71
2022-08-02T20:36:34.290Z,77.88
2022-08-02T20:39:00.628Z,77.84
2022-08-02T20:41:36.928Z,78.08
2022-08-02T20:44:15.866Z,78.25
2022-08-02T20:46:56.804Z,78.63
2022-08-02T20:49:40.497Z,78.66
2022-08-02T20:52:23.263Z,78.62
2022-08-02T20:54:50.947Z,79.23
2022-08-02T20:57:17.686Z,79.55
2022-08-02T20:59:44.045Z,79.80
2022-08-02T21:02:20.156Z,79.85
2022-08-02T21:04:46.780Z,79.61
2022-08-02T21:07:13.336Z,79.65
2022-08-02T21:09:53.698Z,79.39
2022-08-02T21:12:22.045Z,79.17
2022-08-02T21:14:57.079Z,79.36
2022-08-02T21:20:13.065Z,80.49
2022-08-02T21:22:43.406Z,80.68
2022-08-02T21:25:11.744Z,80.89
2022-08-02T21:27:53.037Z,80.88
2022-08-02T21:30:21.408Z,80.90
2022-08-02T21:32:54.339Z,80.87
2022-08-02T21:35:23.753Z,80.84
2022-08-02T21:37:51.337Z,81.25
2022-08-02T21:40:27.962Z,81.57
2022-08-02T21:42:56.794Z,81.89
2022-08-02T21:45:23.174Z,81.54
2022-08-02T21:47:50.015Z,81.38
2022-08-02T21:50:17.668Z,81.17
2022-08-02T21:52:52.408Z,81.03
2022-08-02T21:55:24.090Z,80.98
2022-08-02T21:58:06.436Z,80.66
2022-08-02T22:00:34.299Z,81.23
2022-08-02T22:03:00.755Z,81.37
2022-08-02T22:05:47.343Z,82.32
2022-08-02T22:08:14.272Z,82.24
2022-08-02T22:11:01.054Z,82.14
2022-08-02T22:13:38.893Z,82.80
2022-08-02T22:16:14.325Z,82.74
2022-08-02T22:18:41.292Z,82.57
2022-08-02T22:21:17.230Z,82.23
2022-08-02T22:23:50.646Z,81.77
2022-08-02T22:26:19.087Z,82.27
2022-08-02T22:28:51.012Z,82.10
2022-08-02T22:31:19.630Z,81.97
2022-08-02T22:34:11.625Z,82.06
2022-08-02T22:36:53.652Z,82.40
2022-08-02T22:39:20.041Z,82.82
2022-08-02T22:42:05.380Z,82.68
2022-08-02T22:44:33.797Z,82.86
2022-08-02T22:47:07.410Z,82.54
2022-08-02T22:49:51.477Z,82.91
2022-08-02T22:52:20.868Z,82.68
2022-08-02T22:54:47.646Z,82.88
2022-08-02T22:57:14.035Z,82.62
2022-08-02T22:58:59.257Z,57.57
2022-08-02T22:59:10.572Z,80.63
2022-08-02T22:59:41.464Z,82.44
2022-08-02T23:02:09.999Z,82.66
2022-08-02T23:04:37.552Z,82.74
2022-08-02T23:07:05.119Z,82.78
2022-08-02T23:09:31.494Z,82.77
2022-08-02T23:11:57.865Z,82.54
2022-08-02T23:14:24.830Z,82.99
2022-08-02T23:17:09.699Z,82.77
2022-08-02T23:19:51.503Z,83.13
2022-08-02T23:22:29.886Z,83.05
2022-08-02T23:25:00.323Z,82.95
2022-08-02T23:27:27.189Z,83.05
2022-08-02T23:29:53.540Z,82.80
2022-08-02T23:32:22.921Z,82.67
2022-08-02T23:34:53.257Z,83.42
2022-08-02T23:37:20.126Z,84.06
2022-08-02T23:39:46.572Z,83.52
2022-08-02T23:42:13.022Z,83.99
2022-08-02T23:44:40.150Z,83.60
2022-08-02T23:47:06.627Z,83.40
2022-08-02T23:49:33.212Z,83.06
2022-08-02T23:52:01.987Z,83.20
2022-08-02T23:54:29.352Z,83.07
2022-08-02T23:56:56.451Z,83.26
2022-08-02T23:59:23.046Z,82.79
